Time,TemperatureF,DewpointF,PressureIn,WindDirection,WindDirectionDegrees,WindSpeedMPH,WindSpeedGustMPH,Humidity,HourlyPrecipIn,Conditions,Clouds,dailyrainin,SoftwareType,DateUTC
2013-02-13 00:02:00,26.8,26.3,29.70,ENE,67,0.0,-999.0,98,-99.99,,,0.00,Acu-Link.com,2013-02-13 05:02:00,
2013-02-13 00:17:00,26.6,26.1,29.70,ENE,67,0.0,-999.0,98,-99.99,,,0.00,Acu-Link.com,2013-02-13 05:17:00,
2013-02-13 00:32:00,26.4,25.9,29.69,ENE,67,0.0,-999.0,98,-99.99,,,0.00,Acu-Link.com,2013-02-13 05:32:00,
2013-02-13 00:48:00,26.2,25.7,29.69,ENE,67,0.0,-999.0,98,-99.99,,,0.00,Acu-Link.com,2013-02-13 05:48:00,
2013-02-13 01:03:00,26.1,25.6,29.67,ENE,67,0.0,-999.0,98,-99.99,,,0.00,Acu-Link.com,2013-02-13 06:03:00,
2013-02-13 01:18:00,26.1,25.6,29.66,ENE,67,0.0,-999.0,98,-99.99,,,0.00,Acu-Link.com,2013-02-13 06:18:00,
2013-02-13 01:33:00,25.7,25.2,29.66,ENE,67,0.0,-999.0,98,-99.99,,,0.00,Acu-Link.com,2013-02-13 06:33:00,
2013-02-13 01:48:00,25.7,25.2,29.66,ENE,67,0.0,-999.0,98,-99.99,,,0.00,Acu-Link.com,2013-02-13 06:48:00,
2013-02-13 02:03:00,25.3,24.8,29.66,ENE,67,0.0,-999.0,98,-99.99,,,0.00,Acu-Link.com,2013-02-13 07:03:00,
2013-02-13 02:18:00,25.2,24.7,29.65,ENE,67,0.0,-999.0,98,-99.99,,,0.00,Acu-Link.com,2013-02-13 07:18:00,
2013-02-13 02:33:00,25.0,24.5,29.64,ENE,67,0.0,-999.0,98,-99.99,,,0.00,Acu-Link.com,2013-02-13 07:33:00,
2013-02-13 02:48:00,24.8,24.3,29.64,East,90,0.0,-999.0,98,-99.99,,,0.00,Acu-Link.com,2013-02-13 07:48:00,
2013-02-13 03:04:00,24.8,24.3,29.63,ENE,67,0.0,-999.0,98,-99.99,,,0.00,Acu-Link.com,2013-02-13 08:04:00,
2013-02-13 03:19:00,24.8,24.3,29.62,ENE,67,0.0,-999.0,98,-99.99,,,0.00,Acu-Link.com,2013-02-13 08:19:00,
2013-02-13 03:34:00,24.6,24.1,29.62,ENE,67,0.0,-999.0,98,-99.99,,,0.00,Acu-Link.com,2013-02-13 08:34:00,
2013-02-13 03:49:00,24.4,23.9,29.63,East,90,0.0,-999.0,98,-99.99,,,0.00,Acu-Link.com,2013-02-13 08:49:00,
2013-02-13 04:15:00,24.4,23.9,29.62,ENE,67,0.0,-999.0,98,-99.99,,,0.00,Acu-Link.com,2013-02-13 09:15:00,
2013-02-13 04:30:00,24.4,23.9,29.62,East,90,0.0,-999.0,98,-99.99,,,0.00,Acu-Link.com,2013-02-13 09:30:00,
2013-02-13 04:46:00,24.6,24.1,29.63,ENE,67,0.0,-999.0,98,-99.99,,,0.00,Acu-Link.com,2013-02-13 09:46:00,
2013-02-13 05:01:00,25.0,24.5,29.63,East,90,0.0,-999.0,98,-99.99,,,0.00,Acu-Link.com,2013-02-13 10:01:00,
2013-02-13 05:16:00,24.8,24.3,29.62,ENE,67,0.0,-999.0,98,-99.99,,,0.00,Acu-Link.com,2013-02-13 10:16:00,
2013-02-13 05:31:00,24.8,24.3,29.61,ENE,67,0.0,-999.0,98,-99.99,,,0.00,Acu-Link.com,2013-02-13 10:31:00,
2013-02-13 05:46:00,25.2,24.7,29.61,NNW,337,0.0,-999.0,98,-99.99,,,0.00,Acu-Link.com,2013-02-13 10:46:00,
2013-02-13 06:01:00,25.3,24.8,29.61,ENE,67,0.0,-999.0,98,-99.99,,,0.00,Acu-Link.com,2013-02-13 11:01:00,
2013-02-13 06:17:00,25.7,25.2,29.59,ENE,67,0.0,-999.0,98,-99.99,,,0.00,Acu-Link.com,2013-02-13 11:17:00,
2013-02-13 06:32:00,26.1,25.6,29.57,NW,315,0.0,-999.0,98,-99.99,,,0.00,Acu-Link.com,2013-02-13 11:32:00,
2013-02-13 06:47:00,26.2,25.7,29.57,ESE,112,0.0,-999.0,98,-99.99,,,0.00,Acu-Link.com,2013-02-13 11:47:00,
2013-02-13 07:02:00,26.2,25.7,29.57,West,270,0.0,-999.0,98,-99.99,,,0.00,Acu-Link.com,2013-02-13 12:02:00,
2013-02-13 07:17:00,26.4,25.9,29.58,NW,315,0.0,-999.0,98,-99.99,,,0.00,Acu-Link.com,2013-02-13 12:17:00,
2013-02-13 07:32:00,26.6,26.1,29.57,ENE,67,0.0,-999.0,98,-99.99,,,0.00,Acu-Link.com,2013-02-13 12:32:00,
2013-02-13 07:48:00,27.1,26.6,29.57,West,270,0.0,-999.0,98,-99.99,,,0.00,Acu-Link.com,2013-02-13 12:48:00,
2013-02-13 08:03:00,28.0,27.5,29.55,ENE,67,0.0,-999.0,98,-99.99,,,0.00,Acu-Link.com,2013-02-13 13:03:00,
2013-02-13 08:18:00,28.4,27.9,29.54,NW,315,0.0,-999.0,98,-99.99,,,0.00,Acu-Link.com,2013-02-13 13:18:00,
2013-02-13 08:33:00,29.3,28.8,29.54,WNW,292,0.0,-999.0,98,-99.99,,,0.00,Acu-Link.com,2013-02-13 13:33:00,
2013-02-13 08:48:00,30.2,29.7,29.53,SSW,202,0.0,-999.0,98,-99.99,,,0.00,Acu-Link.com,2013-02-13 13:48:00,
2013-02-13 09:03:00,31.5,31.0,29.52,West,270,0.0,-999.0,98,-99.99,,,0.00,Acu-Link.com,2013-02-13 14:03:00,
2013-02-13 09:18:00,32.7,32.2,29.54,SW,225,0.0,-999.0,98,-99.99,,,0.00,Acu-Link.com,2013-02-13 14:18:00,
2013-02-13 09:34:00,33.4,32.9,29.54,WNW,292,0.0,-999.0,98,-99.99,,,0.00,Acu-Link.com,2013-02-13 14:34:00,
2013-02-13 09:49:00,34.5,34.0,29.53,East,90,0.0,-999.0,98,-99.99,,,0.00,Acu-Link.com,2013-02-13 14:49:00,
2013-02-13 10:04:00,35.8,35.3,29.52,WNW,292,0.0,-999.0,98,-99.99,,,0.00,Acu-Link.com,2013-02-13 15:04:00,
2013-02-13 10:19:00,36.1,35.6,29.50,WNW,292,0.0,-999.0,98,-99.99,,,0.00,Acu-Link.com,2013-02-13 15:19:00,
2013-02-13 10:34:00,38.1,37.6,29.48,East,90,1.7,-999.0,98,-99.99,,,0.00,Acu-Link.com,2013-02-13 15:34:00,
2013-02-13 10:49:00,39.0,38.5,29.49,WNW,292,3.2,-999.0,98,-99.99,,,0.00,Acu-Link.com,2013-02-13 15:49:00,
2013-02-13 11:05:00,40.6,40.1,29.49,West,270,0.0,-999.0,98,-99.99,,,0.00,Acu-Link.com,2013-02-13 16:05:00,
2013-02-13 11:20:00,40.1,39.6,29.50,West,270,0.0,-999.0,98,-99.99,,,0.00,Acu-Link.com,2013-02-13 16:20:00,
2013-02-13 11:35:00,39.7,39.2,29.49,West,270,0.0,-999.0,98,-99.99,,,0.00,Acu-Link.com,2013-02-13 16:35:00,
2013-02-13 11:50:00,40.1,39.6,29.49,West,270,0.0,-999.0,98,-99.99,,,0.00,Acu-Link.com,2013-02-13 16:50:00,
2013-02-13 12:05:00,40.1,39.6,29.48,WNW,292,2.2,-999.0,98,-99.99,,,0.00,Acu-Link.com,2013-02-13 17:05:00,
2013-02-13 12:20:00,40.3,39.8,29.48,West,270,0.0,-999.0,98,-99.99,,,0.00,Acu-Link.com,2013-02-13 17:20:00,
2013-02-13 12:35:00,41.5,41.0,29.46,WNW,292,0.0,-999.0,98,-99.99,,,0.00,Acu-Link.com,2013-02-13 17:35:00,
2013-02-13 12:50:00,42.3,41.8,29.45,West,270,0.0,-999.0,98,-99.99,,,0.00,Acu-Link.com,2013-02-13 17:50:00,
2013-02-13 13:05:00,42.1,41.6,29.45,NNW,337,0.0,-999.0,98,-99.99,,,0.00,Acu-Link.com,2013-02-13 18:05:00,
2013-02-13 13:21:00,41.0,40.5,29.43,West,270,0.0,-999.0,98,-99.99,,,0.00,Acu-Link.com,2013-02-13 18:21:00,
2013-02-13 13:36:00,40.6,40.1,29.44,WNW,292,0.0,-999.0,98,-99.99,,,0.00,Acu-Link.com,2013-02-13 18:36:00,
2013-02-13 13:51:00,41.0,40.5,29.43,West,270,0.0,-999.0,98,-99.99,,,0.00,Acu-Link.com,2013-02-13 18:51:00,
2013-02-13 14:06:00,40.6,40.1,29.43,West,270,2.2,-999.0,98,-99.99,,,0.00,Acu-Link.com,2013-02-13 19:06:00,
2013-02-13 14:21:00,40.6,40.1,29.43,West,270,1.7,-999.0,98,-99.99,,,0.00,Acu-Link.com,2013-02-13 19:21:00,
2013-02-13 14:36:00,40.5,40.0,29.41,ENE,67,5.3,-999.0,98,-99.99,,,0.00,Acu-Link.com,2013-02-13 19:36:00,
2013-02-13 14:51:00,40.6,40.1,29.41,WNW,292,2.2,-999.0,98,-99.99,,,0.00,Acu-Link.com,2013-02-13 19:51:00,
2013-02-13 15:06:00,41.0,40.5,29.41,East,90,0.0,-999.0,98,-99.99,,,0.00,Acu-Link.com,2013-02-13 20:06:00,
2013-02-13 15:21:00,41.0,40.5,29.41,NNW,337,6.3,-999.0,98,-99.99,,,0.00,Acu-Link.com,2013-02-13 20:21:00,
2013-02-13 15:37:00,40.5,40.0,29.42,West,270,4.2,-999.0,98,-99.99,,,0.00,Acu-Link.com,2013-02-13 20:37:00,
2013-02-13 15:52:00,39.6,39.1,29.43,WSW,247,3.2,-999.0,98,-99.99,,,0.00,Acu-Link.com,2013-02-13 20:52:00,
2013-02-13 16:07:00,38.3,37.8,29.44,SSE,157,3.2,-999.0,98,-99.99,,,0.00,Acu-Link.com,2013-02-13 21:07:00,
2013-02-13 16:22:00,36.7,36.2,29.44,West,270,4.7,-999.0,98,-99.99,,,0.00,Acu-Link.com,2013-02-13 21:22:00,
2013-02-13 16:37:00,36.0,35.5,29.45,WNW,292,3.7,-999.0,98,-99.99,,,0.00,Acu-Link.com,2013-02-13 21:37:00,
2013-02-13 16:52:00,34.9,34.4,29.46,East,90,1.1,-999.0,98,-99.99,,,0.00,Acu-Link.com,2013-02-13 21:52:00,
2013-02-13 17:07:00,34.3,33.8,29.45,ESE,112,0.0,-999.0,98,-99.99,,,0.00,Acu-Link.com,2013-02-13 22:07:00,
2013-02-13 17:22:00,34.0,33.5,29.46,ESE,112,0.0,-999.0,98,-99.99,,,0.00,Acu-Link.com,2013-02-13 22:22:00,
2013-02-13 17:37:00,33.8,33.3,29.46,WNW,292,0.0,-999.0,98,-99.99,,,0.00,Acu-Link.com,2013-02-13 22:37:00,
2013-02-13 17:53:00,33.6,33.1,29.47,West,270,0.0,-999.0,98,-99.99,,,0.00,Acu-Link.com,2013-02-13 22:53:00,
2013-02-13 18:08:00,33.3,32.8,29.47,North,0,0.0,-999.0,98,-99.99,,,0.00,Acu-Link.com,2013-02-13 23:08:00,
2013-02-13 18:23:00,33.3,32.8,29.48,WNW,292,0.0,-999.0,98,-99.99,,,0.00,Acu-Link.com,2013-02-13 23:23:00,
2013-02-13 18:38:00,33.3,32.8,29.49,West,270,0.0,-999.0,98,-99.99,,,0.00,Acu-Link.com,2013-02-13 23:38:00,
2013-02-13 18:53:00,33.4,32.9,29.50,NNE,22,0.0,-999.0,98,-99.99,,,0.00,Acu-Link.com,2013-02-13 23:53:00,
2013-02-13 19:08:00,33.4,32.9,29.51,West,270,0.0,-999.0,98,-99.99,,,0.00,Acu-Link.com,2013-02-14 00:08:00,
2013-02-13 19:23:00,33.6,33.1,29.51,NNW,337,0.0,-999.0,98,-99.99,,,0.00,Acu-Link.com,2013-02-14 00:23:00,
2013-02-13 19:38:00,33.6,33.1,29.52,NW,315,0.0,-999.0,98,-99.99,,,0.00,Acu-Link.com,2013-02-14 00:38:00,
2013-02-13 19:54:00,33.6,33.1,29.52,NW,315,0.0,-999.0,98,-99.99,,,0.00,Acu-Link.com,2013-02-14 00:54:00,
2013-02-13 20:09:00,33.4,32.9,29.52,NW,315,0.0,-999.0,98,-99.99,,,0.00,Acu-Link.com,2013-02-14 01:09:00,
2013-02-13 20:24:00,33.4,32.9,29.54,NNE,22,0.0,-999.0,98,-99.99,,,0.00,Acu-Link.com,2013-02-14 01:24:00,
2013-02-13 20:39:00,33.6,33.1,29.53,NNW,337,0.0,-999.0,98,-99.99,,,0.00,Acu-Link.com,2013-02-14 01:39:00,
2013-02-13 20:54:00,33.6,33.1,29.54,NNE,22,0.0,-999.0,98,-99.99,,,0.00,Acu-Link.com,2013-02-14 01:54:00,
2013-02-13 21:10:00,33.8,33.3,29.56,NNE,22,0.0,-999.0,98,-99.99,,,0.00,Acu-Link.com,2013-02-14 02:10:00,
2013-02-13 21:25:00,33.8,33.3,29.57,NE,45,0.0,-999.0,98,-99.99,,,0.00,Acu-Link.com,2013-02-14 02:25:00,
2013-02-13 21:40:00,33.8,33.3,29.57,NNW,337,0.0,-999.0,98,-99.99,,,0.00,Acu-Link.com,2013-02-14 02:40:00,
2013-02-13 21:55:00,34.0,33.5,29.58,NNW,337,0.0,-999.0,98,-99.99,,,0.00,Acu-Link.com,2013-02-14 02:55:00,
2013-02-13 22:10:00,34.2,33.7,29.59,SSW,202,0.0,-999.0,98,-99.99,,,0.00,Acu-Link.com,2013-02-14 03:10:00,
2013-02-13 22:25:00,34.2,33.7,29.59,West,270,0.0,-999.0,98,-99.99,,,0.00,Acu-Link.com,2013-02-14 03:25:00,
2013-02-13 22:40:00,34.0,33.5,29.60,WNW,292,0.0,-999.0,98,-99.99,,,0.00,Acu-Link.com,2013-02-14 03:40:00,
2013-02-13 22:55:00,33.6,33.1,29.60,West,270,0.0,-999.0,98,-99.99,,,0.00,Acu-Link.com,2013-02-14 03:55:00,
2013-02-13 23:10:00,33.4,32.9,29.61,West,270,2.2,-999.0,98,-99.99,,,0.00,Acu-Link.com,2013-02-14 04:10:00,
2013-02-13 23:26:00,33.3,32.8,29.61,SW,225,1.1,-999.0,98,-99.99,,,0.00,Acu-Link.com,2013-02-14 04:26:00,
2013-02-13 23:41:00,32.7,32.2,29.61,SSW,202,2.7,-999.0,98,-99.99,,,0.00,Acu-Link.com,2013-02-14 04:41:00,
2013-02-13 23:56:00,32.7,32.2,29.63,South,180,0.0,-999.0,98,-99.99,,,0.00,Acu-Link.com,2013-02-14 04:56:00,